Time;durP1;ratioP1;P1;durP2;ratioP2;P2;SDS_P1;SDS_P2;PMS_P1;PMS_P2;Temp;Humidity;BMP_temperature;BMP_pressure;BME280_temperature;BME280_humidity;BME280_pressure;Samples;Min_cycle;Max_cycle;Signal;HPM_P1;HPM_P2
2022/04/19 00:00:06;;;;;;;4.23;3.40;;;;;;;7.84;65.28;99164.84;5037289;28;20679;-74
2022/04/19 00:02:35;;;;;;;3.67;3.33;;;;;;;7.74;65.37;99165.38;5035505;28;20264;-74
2022/04/19 00:05:00;;;;;;;4.87;4.30;;;;;;;7.65;66.05;99162.47;5029626;28;20957;-74
2022/04/19 00:07:26;;;;;;;3.40;3.07;;;;;;;7.64;65.91;99169.50;5024440;28;20276;-74
2022/04/19 00:09:51;;;;;;;4.37;3.67;;;;;;;7.64;66.24;99158.16;5024766;28;20229;-74
2022/04/19 00:12:17;;;;;;;5.47;3.57;;;;;;;7.64;66.17;99159.03;5025798;28;20201;-74
2022/04/19 00:14:43;;;;;;;5.03;4.20;;;;;;;7.64;66.00;99164.25;5033440;28;20236;-74
2022/04/19 00:17:08;;;;;;;8.70;3.70;;;;;;;7.63;66.09;99164.34;5033301;28;20230;-74
2022/04/19 00:19:34;;;;;;;4.63;3.10;;;;;;;7.61;66.29;99153.97;5040317;28;20233;-74
2022/04/19 00:22:00;;;;;;;3.53;3.23;;;;;;;7.54;66.88;99155.28;5043635;28;20197;-74
2022/04/19 00:24:25;;;;;;;4.57;3.92;;;;;;;7.42;67.39;99153.34;5042625;28;20233;-74
2022/04/19 00:26:50;;;;;;;6.17;3.97;;;;;;;7.38;67.30;99157.09;5043998;28;21362;-74
2022/04/19 00:29:16;;;;;;;3.50;3.17;;;;;;;7.36;67.26;99159.78;5041083;28;20741;-74
2022/04/19 00:31:41;;;;;;;4.27;3.33;;;;;;;7.32;67.34;99153.06;5042767;28;21064;-74
2022/04/19 00:34:07;;;;;;;4.97;3.33;;;;;;;7.29;67.54;99154.09;5042568;28;20206;-74
2022/04/19 00:36:32;;;;;;;3.40;3.03;;;;;;;7.26;67.48;99154.25;5041374;28;20646;-74
2022/04/19 00:38:57;;;;;;;4.20;3.37;;;;;;;7.25;67.93;99152.56;5040712;28;20205;-75
2022/04/19 00:41:23;;;;;;;3.93;3.40;;;;;;;7.22;68.11;99154.50;5041969;28;20202;-75
2022/04/19 00:43:49;;;;;;;3.77;3.23;;;;;;;7.23;68.03;99151.78;5039434;28;20292;-75
2022/04/19 00:46:15;;;;;;;4.73;3.33;;;;;;;7.19;68.28;99149.47;5041125;28;20201;-75
2022/04/19 00:48:42;;;;;;;3.17;2.95;;;;;;;7.14;68.55;99144.50;5041518;28;20452;-75
2022/04/19 00:51:08;;;;;;;3.88;3.10;;;;;;;7.14;68.21;99146.28;5025362;28;20256;-75
2022/04/19 00:53:34;;;;;;;4.00;3.60;;;;;;;7.16;68.34;99147.03;5040476;28;20202;-75
2022/04/19 00:56:00;;;;;;;5.25;3.97;;;;;;;7.04;68.92;99146.78;5041610;28;20455;-75
2022/04/19 00:58:27;;;;;;;4.00;3.63;;;;;;;6.87;69.38;99142.50;5026118;28;20230;-75
2022/04/19 01:00:52;;;;;;;5.68;3.97;;;;;;;6.80;69.44;99140.31;5040457;28;20201;-75
2022/04/19 01:03:21;;;;;;;4.28;3.42;;;;;;;6.73;69.97;99142.44;5040934;28;20201;-75
2022/04/19 01:05:48;;;;;;;5.18;3.90;;;;;;;6.67;69.89;99137.56;5036719;28;20562;-75
2022/04/19 01:08:19;;;;;;;6.50;4.20;;;;;;;6.65;69.85;99144.63;5041082;28;20781;-75
2022/04/19 01:10:45;;;;;;;3.35;2.83;;;;;;;6.66;70.02;99138.47;5042899;28;20279;-75
2022/04/19 01:13:18;;;;;;;3.33;2.90;;;;;;;6.69;69.90;99145.31;5039551;28;20907;-75
2022/04/19 01:15:50;;;;;;;6.10;3.83;;;;;;;6.67;69.51;99134.09;5040109;28;20336;-75
2022/04/19 01:18:23;;;;;;;5.25;3.00;;;;;;;6.62;69.61;99143.03;5038808;28;20232;-75
2022/04/19 01:20:50;;;;;;;5.75;3.35;;;;;;;6.63;69.97;99139.50;5033431;28;20216;-75
2022/04/19 01:23:19;;;;;;;3.67;3.05;;;;;;;6.66;69.85;99135.88;5039014;28;20201;-75
2022/04/19 01:25:45;;;;;;;4.25;3.67;;;;;;;6.69;69.88;99133.09;5038271;28;20205;-74
2022/04/19 01:28:10;;;;;;;4.50;3.83;;;;;;;6.72;69.95;99132.06;5041693;28;20228;-75
2022/04/19 01:30:38;;;;;;;6.43;3.80;;;;;;;6.65;69.78;99132.44;5042673;28;20222;-75
2022/04/19 01:33:03;;;;;;;5.30;4.07;;;;;;;6.58;70.62;99135.44;5036129;28;20467;-74
2022/04/19 01:35:29;;;;;;;4.53;3.20;;;;;;;6.52;70.78;99134.03;5041887;28;20216;-75
2022/04/19 01:37:57;;;;;;;4.07;3.70;;;;;;;6.51;71.05;99136.69;5040107;28;20311;-75
2022/04/19 01:40:33;;;;;;;3.75;3.45;;;;;;;6.49;71.36;99130.75;5042899;28;20231;-75
2022/04/19 01:43:02;;;;;;;3.57;3.27;;;;;;;6.43;71.25;99137.97;5040512;28;20205;-75
2022/04/19 01:45:35;;;;;;;3.88;3.53;;;;;;;6.36;71.45;99128.78;5039106;28;20228;-74
2022/04/19 01:48:04;;;;;;;4.45;3.50;;;;;;;6.33;71.25;99138.56;5040052;28;20214;-75
2022/04/19 01:50:32;;;;;;;5.40;3.67;;;;;;;6.28;71.46;99144.00;5037488;28;20252;-75
2022/04/19 01:53:02;;;;;;;3.15;2.92;;;;;;;6.21;71.42;99140.03;5039449;28;20266;-75
2022/04/19 01:55:29;;;;;;;3.53;3.22;;;;;;;6.10;72.17;99140.63;5041284;28;20458;-76
2022/04/19 01:57:59;;;;;;;4.88;3.47;;;;;;;6.06;71.81;99138.25;5038678;28;20225;-74
2022/04/19 02:00:33;;;;;;;3.83;2.90;;;;;;;6.06;71.91;99131.28;5037925;28;20219;-74
2022/04/19 02:03:01;;;;;;;5.90;4.10;;;;;;;6.08;71.76;99133.81;5038549;28;20204;-77
2022/04/19 02:05:26;;;;;;;4.05;3.70;;;;;;;6.14;71.91;99130.88;5039041;28;20224;-75
2022/04/19 02:07:52;;;;;;;5.27;3.23;;;;;;;6.16;71.69;99131.66;5051897;28;20249;-75
2022/04/19 02:10:20;;;;;;;3.67;3.10;;;;;;;6.05;71.71;99139.16;5041741;28;20846;-75
2022/04/19 02:12:50;;;;;;;3.15;2.95;;;;;;;5.87;72.38;99139.19;5054895;28;20198;-75
2022/04/19 02:15:43;;;;;;;3.90;3.50;;;;;;;5.70;72.82;99132.25;5040922;28;20308;-75
2022/04/19 02:18:22;;;;;;;5.43;3.55;;;;;;;5.69;72.81;99130.53;5041898;28;20279;-75
2022/04/19 02:20:48;;;;;;;3.00;2.70;;;;;;;5.70;72.83;99131.41;5040282;28;20197;-75
2022/04/19 02:23:13;;;;;;;4.00;3.60;;;;;;;5.73;72.53;99137.28;5041068;28;20674;-75
2022/04/19 02:25:39;;;;;;;3.20;2.90;;;;;;;5.75;72.58;99129.38;5038184;28;20225;-75
2022/04/19 02:28:09;;;;;;;3.70;3.40;;;;;;;5.77;72.38;99127.53;5041537;28;20229;-75
2022/04/19 02:30:37;;;;;;;3.95;3.28;;;;;;;5.80;72.34;99132.59;5041465;28;20708;-75
2022/04/19 02:33:08;;;;;;;3.40;3.10;;;;;;;5.84;72.52;99130.69;5041505;28;20243;-75
2022/04/19 02:35:37;;;;;;;3.75;3.00;;;;;;;5.85;71.95;99121.94;5041012;28;20216;-75
2022/04/19 02:38:03;;;;;;;4.35;3.95;;;;;;;5.86;72.06;99121.88;5037669;28;20962;-75
2022/04/19 02:40:34;;;;;;;5.20;3.67;;;;;;;5.84;72.40;99126.31;5040236;28;20970;-75
2022/04/19 02:43:01;;;;;;;5.82;3.70;;;;;;;5.71;72.68;99122.66;5039610;28;20212;-75
2022/04/19 02:45:28;;;;;;;4.10;3.47;;;;;;;5.58;72.67;99126.81;5042147;28;20632;-75
2022/04/19 02:48:03;;;;;;;4.00;3.60;;;;;;;5.50;73.14;99115.00;5039825;28;20233;-76
2022/04/19 02:50:34;;;;;;;3.17;2.85;;;;;;;5.46;73.36;99118.69;5031338;28;20740;-76
2022/04/19 02:53:01;;;;;;;4.05;3.65;;;;;;;5.42;73.09;99122.34;5023435;28;20213;-76
2022/04/19 02:55:27;;;;;;;4.40;4.00;;;;;;;5.34;73.29;99124.50;5034207;28;20205;-76
2022/04/19 02:57:53;;;;;;;4.60;4.20;;;;;;;5.32;73.28;99121.16;5039149;28;20225;-76
2022/04/19 03:00:20;;;;;;;4.40;3.93;;;;;;;5.28;73.84;99119.63;5045226;28;20213;-76
2022/04/19 03:02:46;;;;;;;3.65;3.35;;;;;;;5.22;73.61;99122.53;5042842;28;20649;-76
2022/04/19 03:05:12;;;;;;;3.88;3.58;;;;;;;5.21;73.74;99124.28;5035060;28;20197;-76
2022/04/19 03:07:37;;;;;;;5.80;4.10;;;;;;;5.20;73.24;99122.59;5042037;28;20307;-76
2022/04/19 03:10:06;;;;;;;5.30;4.07;;;;;;;5.22;73.47;99115.56;5040812;28;20541;-75
2022/04/19 03:12:31;;;;;;;5.78;3.35;;;;;;;5.21;73.64;99123.44;5044074;28;20202;-76
2022/04/19 03:15:07;;;;;;;4.78;4.28;;;;;;;5.20;73.61;99122.59;5045402;28;20202;-75
2022/04/19 03:17:34;;;;;;;4.80;3.90;;;;;;;5.21;73.61;99120.81;5040310;28;20244;-74
2022/04/19 03:20:00;;;;;;;5.47;4.22;;;;;;;5.24;73.26;99118.09;5044095;28;20229;-76
2022/04/19 03:27:41;;;;;;;4.20;3.80;;;;;;;5.23;73.57;99121.59;5039324;28;20573;-76
2022/04/19 03:27:55;;;;;;;3.63;3.33;;;;;;;5.15;73.61;99118.53;5041720;28;20582;-74
2022/04/19 03:30:20;;;;;;;3.50;2.93;;;;;;;5.08;74.20;99115.41;5044336;28;20248;-77
2022/04/19 03:32:47;;;;;;;4.57;3.95;;;;;;;5.03;74.45;99115.63;5023868;28;20482;-75
2022/04/19 03:35:12;;;;;;;4.10;3.70;;;;;;;5.02;74.71;99123.50;5042541;28;20204;-76
2022/04/19 03:37:39;;;;;;;4.47;4.07;;;;;;;5.05;74.73;99120.72;5037172;28;20222;-74
2022/04/19 03:40:06;;;;;;;4.82;4.38;;;;;;;5.10;74.32;99114.41;5041608;28;20197;-74
2022/04/19 03:42:33;;;;;;;5.97;3.55;;;;;;;5.16;73.86;99117.59;5041752;28;20228;-76
2022/04/19 03:44:59;;;;;;;3.20;2.90;;;;;;;5.11;73.98;99117.84;5041973;28;20693;-74
2022/04/19 03:47:25;;;;;;;3.83;3.50;;;;;;;5.06;73.98;99118.06;5035680;28;20468;-76
2022/04/19 03:49:51;;;;;;;5.80;4.28;;;;;;;5.08;74.06;99121.44;5043849;28;20722;-74
2022/04/19 03:52:17;;;;;;;4.30;3.93;;;;;;;5.09;73.81;99110.09;5048705;28;20693;-74
2022/04/19 03:54:43;;;;;;;5.25;3.60;;;;;;;5.09;73.85;99112.72;5042084;28;20444;-76
2022/04/19 03:57:10;;;;;;;4.60;3.27;;;;;;;5.06;73.76;99119.84;5040425;28;20226;-75
2022/04/19 03:59:38;;;;;;;3.70;3.40;;;;;;;5.01;73.76;99117.44;5043202;28;20852;-74
2022/04/19 04:02:05;;;;;;;5.35;3.53;;;;;;;4.95;73.87;99122.97;5034217;28;20198;-76
2022/04/19 04:04:31;;;;;;;4.70;3.92;;;;;;;4.96;73.51;99124.63;5041253;28;20254;-75
2022/04/19 04:06:58;;;;;;;4.97;3.78;;;;;;;5.00;73.74;99122.75;5040466;28;20221;-76
2022/04/19 04:09:25;;;;;;;4.75;3.70;;;;;;;5.02;73.63;99120.88;5043427;28;20198;-74
2022/04/19 04:11:50;;;;;;;5.13;4.15;;;;;;;5.05;73.18;99119.00;5036883;28;20221;-76
2022/04/19 04:14:18;;;;;;;3.15;2.85;;;;;;;5.03;73.23;99120.81;5038885;28;20216;-77
2022/04/19 04:16:43;;;;;;;3.83;3.53;;;;;;;4.96;73.43;99127.22;5044667;28;20218;-74
2022/04/19 04:19:09;;;;;;;4.30;4.00;;;;;;;4.83;73.79;99128.75;5043742;28;21212;-74
2022/04/19 04:21:35;;;;;;;4.00;3.40;;;;;;;4.68;74.17;99130.31;5041873;28;20190;-76
2022/04/19 04:24:00;;;;;;;3.73;3.43;;;;;;;4.56;74.35;99130.88;5040398;28;20202;-74
2022/04/19 04:26:29;;;;;;;9.55;3.40;;;;;;;4.46;74.75;99130.50;5024725;28;20456;-75
2022/04/19 04:28:55;;;;;;;3.17;2.87;;;;;;;4.40;74.80;99130.75;5043236;28;20248;-74
2022/04/19 04:31:20;;;;;;;3.73;3.43;;;;;;;4.41;74.75;99133.28;5040146;28;20592;-75
2022/04/19 04:33:46;;;;;;;5.90;3.60;;;;;;;4.41;74.94;99135.88;5043591;28;20288;-75
2022/04/19 04:36:11;;;;;;;3.50;2.70;;;;;;;4.42;74.70;99134.13;5041881;28;20688;-73
2022/04/19 04:38:37;;;;;;;3.65;3.35;;;;;;;4.42;74.79;99137.56;5043584;28;20226;-77
2022/04/19 04:41:08;;;;;;;4.13;3.70;;;;;;;4.40;75.29;99134.22;5041607;28;20483;-74
2022/04/19 04:43:34;;;;;;;5.97;4.00;;;;;;;4.40;75.68;99136.81;5039997;28;20711;-75
2022/04/19 04:51:29;;;;;;;4.85;3.00;;;;;;;4.43;74.93;99136.66;5041639;28;20221;-74
2022/04/19 04:53:55;;;;;;;4.10;3.30;;;;;;;4.48;74.97;99133.00;5042446;28;20198;-74
2022/04/19 04:56:25;;;;;;;3.47;3.15;;;;;;;4.54;74.91;99133.56;5041821;28;20583;-74
2022/04/19 04:58:50;;;;;;;3.30;3.00;;;;;;;4.59;74.73;99136.81;5040534;28;20288;-74
2022/04/19 05:01:16;;;;;;;3.30;2.93;;;;;;;4.66;74.59;99140.78;5040299;28;20201;-74
2022/04/19 05:03:42;;;;;;;4.63;4.18;;;;;;;4.71;74.47;99139.75;5042740;28;20205;-74
2022/04/19 05:06:11;;;;;;;5.05;3.85;;;;;;;4.97;73.68;99147.16;5036340;28;20290;-75
2022/04/19 05:08:36;;;;;;;4.10;3.70;;;;;;;5.39;72.61;99142.50;5040068;28;20312;-74
2022/04/19 05:11:02;;;;;;;8.53;4.67;;;;;;;5.88;70.95;99143.47;5037629;28;20439;-74
2022/04/19 05:13:30;;;;;;;4.53;4.13;;;;;;;6.36;69.50;99131.41;5041867;28;20247;-75
2022/04/19 05:15:58;;;;;;;6.28;4.97;;;;;;;6.83;67.79;99134.94;5039035;28;20198;-73
2022/04/19 05:18:25;;;;;;;4.88;3.95;;;;;;;7.30;66.51;99132.25;5041084;28;20225;-72
2022/04/19 05:20:53;;;;;;;7.22;5.13;;;;;;;7.91;64.75;99132.16;5040302;28;20292;-76
2022/04/19 05:23:20;;;;;;;7.30;5.78;;;;;;;8.48;63.27;99129.56;5040514;28;20202;-73
2022/04/19 05:25:45;;;;;;;7.05;6.45;;;;;;;9.07;61.55;99131.91;5040490;28;20205;-74
2022/04/19 05:28:11;;;;;;;6.93;6.03;;;;;;;9.63;60.08;99134.34;5030756;28;20229;-73
2022/04/19 05:30:36;;;;;;;7.70;5.57;;;;;;;10.11;58.72;99118.81;5042044;28;20221;-73
2022/04/19 05:33:02;;;;;;;9.53;7.00;;;;;;;10.56;56.39;99119.19;5031114;28;20458;-76
2022/04/19 05:35:28;;;;;;;11.43;8.03;;;;;;;11.02;55.20;99131.63;5040960;28;20205;-76
2022/04/19 05:37:55;;;;;;;7.00;5.32;;;;;;;11.30;54.61;99120.75;5036595;28;20221;-74
2022/04/19 05:40:21;;;;;;;6.18;5.57;;;;;;;11.39;54.17;99121.84;5033392;28;20193;-73
2022/04/19 05:42:47;;;;;;;6.38;5.03;;;;;;;11.24;54.46;99115.94;5036499;28;20224;-76
2022/04/19 05:45:13;;;;;;;4.63;3.58;;;;;;;11.08;54.90;99132.00;5022433;28;20787;-77
2022/04/19 05:47:38;;;;;;;4.23;3.83;;;;;;;10.87;55.33;99133.56;5035146;28;20257;-72
2022/04/19 05:50:04;;;;;;;4.43;4.13;;;;;;;10.50;56.11;99130.13;5036845;28;20411;-77
2022/04/19 05:52:30;;;;;;;4.80;4.40;;;;;;;10.09;57.29;99133.81;5036534;28;20751;-75
2022/04/19 05:54:57;;;;;;;6.23;3.57;;;;;;;9.65;58.45;99142.97;5035835;28;20699;-76
2022/04/19 05:57:22;;;;;;;5.30;4.85;;;;;;;9.28;59.19;99148.00;5036741;28;20228;-75
2022/04/19 05:59:48;;;;;;;5.53;3.63;;;;;;;9.07;59.70;99148.50;5036560;28;20197;-74
2022/04/19 06:04:58;;;;;;;9.95;4.45;;;;;;;8.73;59.81;99148.97;5053503;28;20757;-74
2022/04/19 06:07:31;;;;;;;5.90;3.28;;;;;;;8.90;59.26;99145.25;5037172;28;20228;-74
2022/04/19 06:10:06;;;;;;;5.00;3.72;;;;;;;9.47;57.70;99152.88;5036190;28;20221;-74
2022/04/19 06:12:32;;;;;;;12.73;2.88;;;;;;;10.18;55.98;99144.53;5037060;28;20658;-74
2022/04/19 06:15:01;;;;;;;6.15;2.92;;;;;;;11.06;53.73;99143.59;5036367;28;20197;-75
2022/04/19 06:17:32;;;;;;;8.73;3.93;;;;;;;11.67;51.00;99139.03;5037394;28;20221;-74
2022/04/19 06:20:03;;;;;;;4.00;2.88;;;;;;;12.13;49.94;99132.91;5036579;28;20263;-74
2022/04/19 06:22:29;;;;;;;4.40;3.25;;;;;;;12.61;48.61;99139.72;5036273;28;20497;-75
2022/04/19 06:25:01;;;;;;;2.92;2.70;;;;;;;13.20;47.19;99136.66;5036567;28;20287;-75
2022/04/19 06:27:26;;;;;;;4.82;3.75;;;;;;;13.82;46.06;99132.41;5038482;28;20796;-74
2022/04/19 06:29:52;;;;;;;4.50;3.03;;;;;;;14.32;44.75;99140.47;5039162;28;20277;-75
2022/04/19 06:32:19;;;;;;;3.15;2.85;;;;;;;14.77;43.74;99133.94;5036680;28;20193;-74
2022/04/19 06:34:47;;;;;;;3.40;3.10;;;;;;;15.16;42.82;99134.03;5044069;28;20610;-74
2022/04/19 06:37:16;;;;;;;7.57;3.03;;;;;;;15.48;42.22;99125.78;5041120;28;20227;-75
2022/04/19 06:39:46;;;;;;;9.40;3.57;;;;;;;15.75;41.90;99125.09;5040142;28;20387;-75
2022/04/19 06:42:12;;;;;;;5.30;3.17;;;;;;;15.78;41.81;99123.97;5039832;28;21009;-74
2022/04/19 06:44:56;;;;;;;4.30;2.90;;;;;;;15.90;41.27;99128.97;5040578;28;20493;-74
2022/04/19 06:47:26;;;;;;;3.03;2.33;;;;;;;16.04;40.82;99132.97;5039883;28;20529;-75
2022/04/19 06:49:57;;;;;;;5.47;2.73;;;;;;;15.94;41.09;99126.88;5040514;28;20522;-74
2022/04/19 06:52:23;;;;;;;2.60;2.40;;;;;;;15.38;40.88;99131.09;5040332;28;20549;-74
2022/04/19 06:54:49;;;;;;;3.58;2.30;;;;;;;14.45;42.34;99131.50;5030144;28;20944;-74
2022/04/19 06:57:15;;;;;;;3.60;2.90;;;;;;;13.87;43.39;99135.50;5041442;28;20357;-74
2022/04/19 06:59:40;;;;;;;3.97;3.33;;;;;;;13.41;44.54;99139.38;5041098;28;20214;-73
2022/04/19 07:02:06;;;;;;;5.33;3.33;;;;;;;12.79;45.28;99132.13;5040113;28;20247;-73
2022/04/19 07:04:46;;;;;;;4.80;3.10;;;;;;;12.18;46.84;99135.19;5042000;28;20773;-74
2022/04/19 07:07:13;;;;;;;11.93;3.33;;;;;;;11.77;48.08;99139.16;5040604;28;20567;-74
2022/04/19 07:09:41;;;;;;;5.82;3.10;;;;;;;11.47;48.68;99144.94;5039588;28;20203;-74
2022/04/19 07:12:09;;;;;;;3.00;2.50;;;;;;;11.30;48.86;99139.16;5040202;28;20578;-73
2022/04/19 07:14:39;;;;;;;6.38;2.75;;;;;;;11.36;48.69;99143.13;5040920;28;20201;-73
2022/04/19 07:17:10;;;;;;;6.07;2.80;;;;;;;11.82;48.23;99136.19;5042253;28;21015;-73
2022/04/19 07:28:02;;;;;;;3.10;2.28;;;;;;;14.85;40.76;99125.34;5055191;28;20752;-74
2022/04/19 07:30:33;;;;;;;4.85;2.20;;;;;;;15.40;38.74;99123.03;5038221;28;20652;-74
2022/04/19 07:33:00;;;;;;;4.07;2.75;;;;;;;16.06;37.67;99122.22;5039846;28;20300;-74
2022/04/19 07:35:27;;;;;;;5.93;4.00;;;;;;;16.55;36.22;99118.41;5040641;28;20196;-74
2022/04/19 07:37:52;;;;;;;3.60;2.30;;;;;;;17.07;35.50;99112.50;5053165;28;20221;-74
2022/04/19 07:40:22;;;;;;;4.50;2.67;;;;;;;17.64;34.62;99104.19;5039412;28;20549;-74
2022/04/19 07:42:48;;;;;;;3.43;2.80;;;;;;;17.76;34.40;99099.44;5040481;28;20457;-74
2022/04/19 07:45:13;;;;;;;3.20;2.90;;;;;;;17.70;34.69;99108.88;5038548;28;20851;-74
2022/04/19 07:47:39;;;;;;;3.93;3.03;;;;;;;17.64;34.85;99105.00;5038175;28;20291;-74
2022/04/19 07:50:05;;;;;;;7.00;3.60;;;;;;;17.98;34.16;99096.28;5037408;28;20484;-74
2022/04/19 07:52:31;;;;;;;2.90;2.53;;;;;;;18.47;33.56;99095.69;5038307;23;20281;-73
2022/04/19 07:54:56;;;;;;;3.03;2.70;;;;;;;18.42;33.14;99092.69;5001895;28;20457;-74
2022/04/19 07:57:22;;;;;;;2.70;2.50;;;;;;;18.23;33.58;99097.25;5008043;28;20280;-74
2022/04/19 07:59:53;;;;;;;3.20;2.93;;;;;;;18.47;33.53;99098.34;5011122;28;20203;-74
2022/04/19 08:02:20;;;;;;;3.37;2.60;;;;;;;18.65;33.62;99083.09;5021190;28;20976;-74
2022/04/19 08:04:46;;;;;;;2.50;2.30;;;;;;;18.96;33.12;99094.03;5018464;28;20948;-74
2022/04/19 08:07:12;;;;;;;2.90;2.27;;;;;;;19.13;32.97;99080.75;5027280;28;20468;-74
2022/04/19 08:09:39;;;;;;;4.50;2.90;;;;;;;19.39;32.68;99080.59;5020684;28;20479;-74
2022/04/19 08:12:05;;;;;;;3.70;2.70;;;;;;;19.75;32.32;99073.06;5034909;28;20489;-74
2022/04/19 08:14:31;;;;;;;6.50;2.97;;;;;;;19.62;32.23;99062.91;5019154;28;20807;-74
2022/04/19 08:16:57;;;;;;;3.07;2.83;;;;;;;19.74;32.34;99067.91;5016733;28;21490;-75
2022/04/19 08:19:22;;;;;;;6.00;3.33;;;;;;;20.10;31.73;99070.97;5032860;28;20462;-75
2022/04/19 08:21:48;;;;;;;4.20;3.50;;;;;;;20.38;30.98;99062.53;5020094;28;20243;-76
2022/04/19 08:24:13;;;;;;;4.03;2.10;;;;;;;20.84;30.25;99066.13;5017047;28;20284;-76
2022/04/19 08:26:39;;;;;;;2.63;2.43;;;;;;;21.18;29.90;99067.56;5020030;28;20227;-75
2022/04/19 08:29:06;;;;;;;2.47;2.17;;;;;;;21.58;29.23;99062.94;5019045;28;20214;-75
2022/04/19 08:31:31;;;;;;;3.20;2.40;;;;;;;21.80;28.83;99058.53;5018556;28;21070;-75
2022/04/19 08:33:57;;;;;;;3.20;2.30;;;;;;;22.02;28.45;99051.44;5018586;28;20464;-75
2022/04/19 08:36:24;;;;;;;4.20;2.27;;;;;;;22.03;28.48;99043.19;5034926;28;20192;-75
2022/04/19 08:38:50;;;;;;;2.93;2.30;;;;;;;21.49;29.06;99053.31;5023082;28;20944;-75
2022/04/19 08:41:19;;;;;;;3.20;2.67;;;;;;;21.33;29.09;99049.75;5023136;28;21225;-75
2022/04/19 08:43:46;;;;;;;2.70;2.50;;;;;;;21.08;29.30;99045.63;5037277;28;20541;-75
2022/04/19 08:46:12;;;;;;;3.67;2.40;;;;;;;20.43;29.94;99042.31;5022346;28;20498;-74
2022/04/19 08:48:40;;;;;;;2.60;2.20;;;;;;;20.16;29.96;99048.13;5025835;28;20297;-74
2022/04/19 08:51:08;;;;;;;2.53;2.33;;;;;;;20.05;29.33;99038.66;5027505;28;20694;-74
2022/04/19 08:59:05;;;;;;;3.03;2.20;;;;;;;19.91;29.62;99037.56;5024780;28;20748;-75
2022/04/19 09:01:31;;;;;;;5.83;2.40;;;;;;;19.75;29.40;99034.94;5023888;28;20474;-75
2022/04/19 09:03:56;;;;;;;2.93;2.70;;;;;;;19.68;29.50;99037.44;5024979;28;20965;-75
2022/04/19 09:06:51;;;;;;;2.93;2.60;;;;;;;19.85;29.80;99028.41;5025037;28;20782;-75
2022/04/19 09:09:21;;;;;;;3.33;2.57;;;;;;;19.77;30.56;99033.75;5023571;28;20242;-75
2022/04/19 09:11:46;;;;;;;3.00;2.70;;;;;;;19.79;30.42;99034.41;5011708;28;20768;-75
2022/04/19 09:14:12;;;;;;;2.53;2.00;;;;;;;19.82;30.76;99033.22;5024362;28;20931;-75
2022/04/19 09:16:37;;;;;;;3.60;2.73;;;;;;;19.81;30.99;99027.06;5024723;28;21225;-75
2022/04/19 09:19:03;;;;;;;4.17;2.63;;;;;;;19.68;31.61;99026.78;5024309;28;20253;-75
2022/04/19 09:21:39;;;;;;;3.53;2.40;;;;;;;19.54;31.66;99024.78;5024183;28;20224;-75
2022/04/19 09:24:19;;;;;;;4.13;3.10;;;;;;;19.60;31.45;99024.94;5023836;28;20851;-75
2022/04/19 09:26:45;;;;;;;2.87;2.30;;;;;;;19.58;31.37;99021.63;5024088;28;20538;-75
2022/04/19 09:29:21;;;;;;;2.77;2.30;;;;;;;19.61;31.74;99020.44;5023799;28;20554;-76
2022/04/19 09:31:50;;;;;;;2.77;2.00;;;;;;;19.48;31.39;99015.66;5024496;28;20544;-75
2022/04/19 09:34:29;;;;;;;3.50;2.90;;;;;;;19.45;31.30;99010.66;5023917;28;20455;-75
2022/04/19 09:37:24;;;;;;;3.13;2.47;;;;;;;19.43;31.32;99002.00;5023908;28;20458;-75
2022/04/19 09:39:52;;;;;;;4.03;3.20;;;;;;;19.62;31.12;98998.94;5022727;28;20483;-75
2022/04/19 09:42:18;;;;;;;4.37;3.97;;;;;;;19.65;31.33;98995.13;5024121;28;20904;-75
2022/04/19 09:44:52;;;;;;;6.47;3.20;;;;;;;19.68;31.19;98994.81;5024285;28;20968;-75
2022/04/19 09:47:18;;;;;;;3.90;3.33;;;;;;;19.70;31.12;98990.13;5023492;28;20214;-75
2022/04/19 09:49:45;;;;;;;4.97;3.90;;;;;;;19.81;31.73;98986.28;5021935;28;20511;-75
2022/04/19 09:52:36;;;;;;;5.27;3.40;;;;;;;19.91;31.78;98986.91;5023961;28;20248;-75
2022/04/19 09:55:08;;;;;;;5.77;3.57;;;;;;;19.96;32.30;98989.06;5023424;28;20474;-75
2022/04/19 09:57:36;;;;;;;5.53;4.30;;;;;;;19.80;32.39;98985.44;5024213;28;20487;-76
2022/04/19 10:00:07;;;;;;;5.70;4.30;;;;;;;19.84;32.21;98978.75;5023053;28;20454;-75
2022/04/19 10:08:28;;;;;;;4.83;3.40;;;;;;;20.05;32.51;98972.84;5027032;28;20444;-75
2022/04/19 10:10:56;;;;;;;8.10;4.57;;;;;;;20.10;32.11;98972.34;5028015;28;20485;-75
2022/04/19 10:13:25;;;;;;;4.23;3.80;;;;;;;20.16;31.85;98970.81;5028425;28;20484;-75
2022/04/19 10:15:51;;;;;;;10.27;4.73;;;;;;;20.25;31.66;98975.06;5027565;28;20453;-75
2022/04/19 10:18:17;;;;;;;3.80;3.30;;;;;;;20.29;31.35;98971.06;5027865;28;20460;-75
2022/04/19 10:20:54;;;;;;;4.50;3.80;;;;;;;20.33;31.15;98970.53;5032502;28;20928;-75
2022/04/19 10:23:21;;;;;;;8.63;4.83;;;;;;;20.28;30.89;98972.06;5037979;28;20225;-75
2022/04/19 10:25:48;;;;;;;7.97;4.70;;;;;;;20.28;31.01;98964.91;5035382;28;20774;-75
2022/04/19 10:28:30;;;;;;;5.23;3.97;;;;;;;20.15;31.30;98969.16;5031778;28;20497;-75
2022/04/19 10:30:57;;;;;;;6.17;4.17;;;;;;;20.20;31.20;98964.94;5027833;28;20480;-75
2022/04/19 10:33:38;;;;;;;6.53;3.10;;;;;;;20.25;30.85;98953.75;5027122;28;20480;-76
2022/04/19 10:36:21;;;;;;;5.57;3.17;;;;;;;20.33;31.07;98956.34;5026640;28;20460;-75
2022/04/19 10:39:13;;;;;;;4.27;2.93;;;;;;;20.43;30.54;98954.28;5026816;28;21023;-75
2022/04/19 10:41:49;;;;;;;6.80;3.40;;;;;;;20.53;30.20;98957.59;5027378;28;20490;-75
2022/04/19 10:44:26;;;;;;;2.83;2.40;;;;;;;20.70;29.97;98942.28;5033738;28;20543;-75
2022/04/19 10:47:16;;;;;;;5.80;3.20;;;;;;;20.86;29.59;98940.50;5029378;28;20456;-76
2022/04/19 10:49:57;;;;;;;2.93;2.73;;;;;;;20.91;29.42;98943.47;5028557;28;20831;-76
2022/04/19 10:52:43;;;;;;;5.70;2.77;;;;;;;20.91;29.28;98938.94;5031680;28;20490;-76
2022/04/19 10:55:08;;;;;;;4.27;2.80;;;;;;;20.95;28.92;98942.94;5026698;28;20939;-76
2022/04/19 11:00:27;;;;;;;4.30;2.60;;;;;;;20.72;28.33;98944.78;5027147;28;20679;-76
2022/04/19 11:03:00;;;;;;;4.87;3.00;;;;;;;20.81;28.50;98935.69;5027015;28;20470;-76
2022/04/19 11:05:46;;;;;;;4.33;2.70;;;;;;;20.84;28.54;98927.31;5026556;28;20532;-75
2022/04/19 11:08:27;;;;;;;4.10;3.27;;;;;;;20.81;28.34;98933.03;5026667;28;20958;-76
2022/04/19 11:10:55;;;;;;;4.30;2.67;;;;;;;20.74;28.59;98924.09;5026315;28;20495;-76
2022/04/19 11:13:27;;;;;;;4.70;2.53;;;;;;;20.74;28.81;98918.75;5025775;28;20561;-76
2022/04/19 11:16:00;;;;;;;2.87;2.53;;;;;;;20.68;28.38;98922.94;5026381;28;20475;-76
2022/04/19 11:18:31;;;;;;;2.73;2.20;;;;;;;20.72;28.36;98918.09;5025010;28;20471;-76
2022/04/19 11:21:03;;;;;;;4.30;2.73;;;;;;;20.72;28.78;98908.25;5026220;28;20480;-78
2022/04/19 11:23:40;;;;;;;6.90;2.50;;;;;;;20.66;28.50;98913.50;5030499;28;20571;-75
2022/04/19 11:26:08;;;;;;;4.00;2.53;;;;;;;20.68;28.84;98901.59;5025881;28;20458;-76
2022/04/19 11:28:34;;;;;;;12.30;2.57;;;;;;;20.60;29.08;98908.84;5026118;28;20446;-76
2022/04/19 11:31:00;;;;;;;3.47;2.50;;;;;;;20.61;29.07;98907.88;5025930;28;20509;-75
2022/04/19 11:33:33;;;;;;;3.03;2.40;;;;;;;20.62;28.93;98901.50;5027216;28;20487;-75
2022/04/19 11:36:01;;;;;;;2.67;2.47;;;;;;;20.50;28.84;98899.22;5026747;28;20512;-76
2022/04/19 11:38:28;;;;;;;8.53;3.07;;;;;;;20.26;28.73;98897.56;5025599;28;20456;-76
2022/04/19 11:49:09;;;;;;;3.20;2.63;;;;;;;20.08;28.30;98884.50;5024867;28;20278;-77
2022/04/19 11:51:35;;;;;;;3.10;2.23;;;;;;;20.08;28.51;98884.50;5025571;28;20490;-75
2022/04/19 11:54:02;;;;;;;2.97;2.40;;;;;;;20.16;28.74;98880.97;5025851;28;20996;-75
2022/04/19 11:56:29;;;;;;;3.00;2.13;;;;;;;20.22;28.62;98874.09;5025139;28;20460;-75
2022/04/19 11:58:58;;;;;;;2.80;1.77;;;;;;;20.33;28.84;98871.84;5040764;28;20497;-75
2022/04/19 12:01:23;;;;;;;3.43;1.87;;;;;;;20.43;28.28;98876.94;5023139;28;20471;-75
2022/04/19 12:03:49;;;;;;;3.70;2.80;;;;;;;20.42;28.13;98869.94;5024940;28;20856;-75
2022/04/19 12:06:19;;;;;;;2.70;2.07;;;;;;;20.41;27.94;98878.94;5028239;28;20257;-75
2022/04/19 12:08:49;;;;;;;2.63;2.43;;;;;;;20.36;27.88;98867.16;5025628;28;20684;-75
2022/04/19 12:11:18;;;;;;;6.27;3.00;;;;;;;20.27;27.79;98869.06;5024729;28;20693;-75
2022/04/19 12:13:49;;;;;;;3.00;1.90;;;;;;;20.16;28.11;98870.31;5023404;28;20557;-75
2022/04/19 12:16:32;;;;;;;2.70;1.80;;;;;;;20.16;28.28;98867.63;5023527;28;20451;-75
2022/04/19 12:19:00;;;;;;;2.53;2.00;;;;;;;20.16;28.18;98867.63;5025073;28;20460;-75
2022/04/19 12:21:41;;;;;;;2.30;1.63;;;;;;;20.19;28.04;98861.13;5024821;28;20467;-75
2022/04/19 12:24:21;;;;;;;2.43;1.97;;;;;;;20.23;27.80;98865.09;5025114;28;20793;-75